.
WxDataArchive / Data Records for 2007-07-18
2007-07-17 July 2007 2007-07-19

Data Records for Wednesday, 18 July 2007

Time	Temp	Chill	HIndex	Humid	Dewpt	 Wind 	HiWind	WindDir	Rain 	Barom 
-----	----	-----	------	-----	-----	------	------	-------	-----	----- 
00:00	67.6	67.6	67.6	95	66.1	0	0	---	0.00	29.883 
00:05	67.6	67.6	67.6	95	66.1	0	0	---	0.00	29.878 
00:10	67.8	67.8	67.8	95	66.3	0	0	---	0.00	29.881 
00:15	67.8	67.8	67.8	95	66.3	0	0	---	0.00	29.883 
00:20	67.9	67.9	67.9	95	66.4	0	0	---	0.00	29.882 
00:25	68.3	68.3	68.3	96	67.1	0	1	248	0.00	29.882 
00:30	68.3	68.3	68.3	95	66.8	0	1	248	0.00	29.885 
00:35	68.4	68.4	68.4	95	66.9	0	1	248	0.00	29.883 
00:40	68.4	68.4	68.4	96	67.2	0	1	248	0.00	29.883 
00:45	68.6	68.6	68.6	96	67.4	0	0	---	0.00	29.880 
00:50	68.6	68.6	68.6	96	67.4	0	1	248	0.00	29.880 
00:55	68.6	68.6	68.6	95	67.1	0	0	---	0.00	29.878 
01:00	68.6	68.6	68.6	96	67.4	0	1	248	0.00	29.880 
01:05	68.8	68.8	68.8	96	67.6	0	1	248	0.00	29.883 
01:10	68.8	68.8	68.8	95	67.3	0	1	248	0.00	29.881 
01:15	68.8	68.8	68.8	95	67.3	0	0	---	0.00	29.879 
01:20	68.8	68.8	68.8	95	67.3	0	0	---	0.00	29.877 
01:25	68.6	68.6	68.6	95	67.1	0	0	---	0.00	29.880 
01:30	68.4	68.4	68.4	95	66.9	0	0	---	0.00	29.879 
01:35	68.4	68.4	68.4	95	66.9	0	0	---	0.00	29.875 
01:40	68.3	68.3	68.3	95	66.8	0	0	---	0.00	29.868 
01:45	68.1	68.1	68.1	95	66.6	0	0	---	0.00	29.867 
01:50	68.1	68.1	68.1	95	66.6	0	1	248	0.00	29.866 
01:55	68.1	68.1	68.1	95	66.6	0	0	---	0.00	29.871 
02:00	67.9	67.9	67.9	95	66.4	0	0	---	0.00	29.866 
02:05	67.9	67.9	67.9	96	66.7	0	0	---	0.00	29.865 
02:10	67.9	67.9	67.9	96	66.7	0	0	---	0.00	29.874 
02:15	67.8	67.8	67.8	96	66.6	0	0	---	0.00	29.875 
02:20	67.8	67.8	67.8	96	66.6	0	0	---	0.00	29.878 
02:25	67.6	67.6	67.6	96	66.4	0	0	---	0.00	29.879 
02:30	67.4	67.4	67.4	96	66.2	0	0	---	0.00	29.873 
02:35	67.3	67.3	67.3	96	66.1	0	0	---	0.00	29.874 
02:40	67.3	67.3	67.3	96	66.1	0	0	---	0.00	29.880 
02:45	67.1	67.1	67.1	96	65.9	0	0	---	0.00	29.873 
02:50	67.1	67.1	67.1	96	65.9	0	0	---	0.00	29.871 
02:55	67.1	67.1	67.1	96	65.9	0	0	---	0.00	29.870 
03:00	67.1	67.1	67.1	96	65.9	0	0	---	0.00	29.870 
03:05	67.1	67.1	67.1	96	65.9	0	0	---	0.00	29.872 
03:10	67.3	67.3	67.3	96	66.1	0	0	---	0.00	29.878 
03:15	67.4	67.4	67.4	97	66.5	0	1	248	0.00	29.880 
03:20	67.6	67.6	67.6	97	66.7	0	1	248	0.00	29.878 
03:25	67.6	67.6	67.6	97	66.7	0	1	248	0.00	29.880 
03:30	67.4	67.4	67.4	97	66.5	0	0	---	0.00	29.878 
03:35	67.4	67.4	67.4	97	66.5	0	0	---	0.00	29.878 
03:40	67.4	67.4	67.4	96	66.2	0	1	248	0.00	29.876 
03:45	67.4	67.4	67.4	96	66.2	0	0	---	0.00	29.877 
03:50	67.4	67.4	67.4	96	66.2	0	1	248	0.00	29.878 
03:55	67.4	67.4	67.4	96	66.2	0	1	248	0.00	29.877 
04:00	67.4	67.4	67.4	96	66.2	0	1	248	0.00	29.878 
04:05	67.4	67.4	67.4	96	66.2	0	1	248	0.00	29.876 
04:10	67.4	67.4	67.4	96	66.2	0	1	248	0.00	29.877 
04:15	67.4	67.4	67.4	96	66.2	0	1	248	0.00	29.878 
04:20	67.4	67.4	67.4	96	66.2	0	1	248	0.00	29.878 
04:25	67.4	67.4	67.4	96	66.2	0	1	248	0.00	29.880 
04:30	67.6	67.6	67.6	96	66.4	0	1	248	0.00	29.879 
04:35	67.6	67.6	67.6	96	66.4	0	1	248	0.00	29.882 
04:40	67.6	67.6	67.6	96	66.4	0	0	---	0.00	29.880 
04:45	67.4	67.4	67.4	95	65.9	0	1	248	0.00	29.879 
04:50	67.4	67.4	67.4	95	65.9	0	1	248	0.00	29.878 
04:55	67.4	67.4	67.4	95	65.9	0	1	248	0.00	29.879 
05:00	67.6	67.6	67.6	95	66.1	0	0	---	0.00	29.877 
05:05	67.6	67.6	67.6	95	66.1	0	1	248	0.00	29.878 
05:10	67.6	67.6	67.6	95	66.1	0	1	248	0.00	29.879 
05:15	67.6	67.6	67.6	95	66.1	0	2	248	0.00	29.879 
05:20	67.8	67.8	67.8	95	66.3	0	1	248	0.00	29.879 
05:25	67.8	67.8	67.8	95	66.3	0	1	248	0.00	29.882 
05:30	67.9	67.9	67.9	95	66.4	0	1	248	0.00	29.884 
05:35	68.1	68.1	68.1	95	66.6	0	1	248	0.00	29.891 
05:40	68.1	68.1	68.1	95	66.6	0	1	248	0.00	29.885 
05:45	68.1	68.1	68.1	95	66.6	0	0	---	0.01	29.888 
05:50	68.1	68.1	68.1	95	66.6	0	0	---	0.00	29.890 
05:55	68.3	68.3	68.3	95	66.8	0	0	---	0.00	29.893 
06:00	68.3	68.3	68.3	95	66.8	0	0	---	0.00	29.895 
06:05	68.3	68.3	68.3	95	66.8	0	0	---	0.00	29.890 
06:10	68.3	68.3	68.3	95	66.8	0	1	248	0.00	29.882 
06:15	68.3	68.3	68.3	95	66.8	0	0	---	0.00	29.882 
06:20	68.4	68.4	68.4	95	66.9	0	1	248	0.00	29.880 
06:25	68.4	68.4	68.4	96	67.2	0	1	248	0.00	29.877 
06:30	68.4	68.4	68.4	96	67.2	0	1	248	0.00	29.877 
06:35	68.6	68.6	68.6	96	67.4	0	2	248	0.00	29.876 
06:40	68.6	68.6	68.6	95	67.1	0	1	248	0.00	29.877 
06:45	68.8	68.8	68.8	96	67.6	0	1	248	0.00	29.878 
06:50	68.8	68.8	68.8	95	67.3	0	2	248	0.00	29.880 
06:55	68.8	68.8	68.8	95	67.3	0	1	248	0.00	29.880 
07:00	68.8	68.8	68.8	95	67.3	0	2	248	0.00	29.880 
07:05	68.9	68.9	68.9	95	67.4	0	1	248	0.00	29.881 
07:10	69.1	69.1	69.1	95	67.6	0	2	248	0.00	29.885 
07:15	69.3	69.3	69.3	95	67.8	0	2	248	0.00	29.890 
07:20	69.6	69.6	69.6	94	67.8	1	3	248	0.00	29.891 
07:25	69.6	69.6	69.6	94	67.8	0	2	248	0.00	29.892 
07:30	69.6	69.6	69.6	93	67.5	0	3	248	0.00	29.893 
07:35	69.8	69.8	69.8	92	67.4	1	3	248	0.00	29.894 
07:40	69.9	69.9	69.9	92	67.5	0	1	270	0.00	29.898 
07:45	70.1	70.1	70.1	92	67.7	0	1	270	0.00	29.897 
07:50	70.3	70.3	70.3	91	67.5	0	1	270	0.00	29.904 
07:55	70.4	70.4	70.4	91	67.6	0	2	270	0.00	29.898 
08:00	70.8	70.8	70.8	90	67.7	0	3	248	0.00	29.898 
08:05	70.9	70.9	70.9	88	67.2	1	3	248	0.00	29.899 
08:10	71.3	71.3	71.3	88	67.6	0	1	270	0.00	29.901 
08:15	71.6	71.6	71.6	87	67.5	0	1	270	0.00	29.900 
08:20	71.8	71.8	71.8	87	67.7	0	3	270	0.01	29.899 
08:25	71.6	71.6	71.6	88	67.8	0	2	270	0.00	29.897 
08:30	71.5	71.5	71.5	88	67.7	0	1	270	0.00	29.898 
08:35	71.6	71.6	71.6	88	67.8	0	1	270	0.00	29.899 
08:40	72.0	72.0	72.0	87	67.9	0	1	270	0.00	29.893 
08:45	72.3	72.3	72.3	86	67.9	0	1	270	0.00	29.890 
08:50	72.7	72.7	72.7	84	67.6	0	2	270	0.00	29.889 
08:55	73.5	73.5	73.5	83	68.0	0	2	270	0.00	29.883 
09:00	74.6	74.6	74.6	81	68.4	1	2	270	0.00	29.886 
09:05	75.3	75.3	76.2	78	68.0	1	2	292	0.00	29.882 
09:10	76.0	76.0	77.3	76	67.9	1	2	270	0.00	29.883 
09:15	76.3	76.3	77.8	73	67.0	1	3	270	0.00	29.884 
09:20	76.7	76.7	78.4	71	66.6	1	2	270	0.00	29.885 
09:25	77.4	77.4	79.3	70	66.8	1	4	270	0.00	29.881 
09:30	77.9	77.9	79.8	68	66.5	1	5	248	0.00	29.881 
09:35	78.3	78.3	80.4	69	67.3	1	3	270	0.00	29.879 
09:40	79.0	79.0	81.3	69	67.9	0	3	90	0.00	29.875 
09:45	79.6	79.6	81.7	64	66.3	1	4	270	0.00	29.870 
09:50	79.8	79.8	82.0	64	66.5	1	3	270	0.00	29.866 
09:55	80.1	80.1	82.2	62	65.9	1	3	292	0.00	29.868 
10:00	80.5	80.5	82.8	63	66.7	0	2	292	0.00	29.866 
10:05	80.3	80.3	82.4	62	66.1	1	4	248	0.00	29.865 
10:10	80.3	80.3	82.2	60	65.1	1	3	248	0.00	29.864 
10:15	80.3	80.3	82.3	61	65.6	1	3	248	0.00	29.863 
10:20	80.3	80.3	82.3	61	65.6	2	4	248	0.00	29.869 
10:25	80.3	80.3	82.4	62	66.1	1	3	248	0.00	29.871 
10:30	80.7	80.7	82.4	58	64.5	2	5	248	0.00	29.872 
10:35	80.7	80.7	82.2	56	63.5	2	4	270	0.00	29.872 
10:40	80.1	80.1	81.8	59	64.5	3	6	270	0.00	29.876 
10:45	79.8	79.8	81.7	61	65.1	3	6	270	0.00	29.875 
10:50	79.8	79.8	81.7	61	65.1	2	5	270	0.00	29.874 
10:55	79.6	79.6	81.4	61	64.9	2	5	270	0.00	29.874 
11:00	79.6	79.6	81.4	61	64.9	3	6	270	0.00	29.873 
11:05	79.4	79.4	81.3	62	65.2	3	6	270	0.00	29.871 
11:10	79.8	79.8	81.8	62	65.6	2	4	270	0.00	29.871 
11:15	80.3	80.3	82.4	62	66.1	2	6	248	0.00	29.868 
11:20	80.3	80.3	82.3	61	65.6	2	5	248	0.00	29.868 
11:25	80.3	80.3	82.4	62	66.1	1	5	248	0.00	29.867 
11:30	80.5	80.5	82.7	62	66.3	2	7	248	0.00	29.869 
11:35	80.5	80.5	82.4	60	65.3	3	6	292	0.00	29.870 
11:40	79.9	79.9	81.8	61	65.2	2	5	270	0.00	29.873 
11:45	79.8	79.8	81.8	62	65.6	1	3	248	0.00	29.875 
11:50	79.8	79.8	81.8	62	65.6	3	5	248	0.00	29.875 
11:55	80.3	80.3	82.4	62	66.1	2	5	270	0.00	29.869 
12:00	80.5	80.5	82.7	62	66.3	3	6	270	0.00	29.862 
12:05	81.1	81.1	83.6	63	67.3	2	5	270	0.00	29.857 
12:10	81.8	81.8	84.1	60	66.5	3	6	270	0.00	29.853 
12:15	82.0	82.0	84.4	60	66.7	2	4	270	0.00	29.844 
12:20	82.4	82.4	85.2	61	67.6	2	4	270	0.00	29.842 
12:25	82.6	82.6	85.1	59	66.8	3	5	270	0.00	29.839 
12:30	83.0	83.0	85.5	58	66.7	2	4	248	0.00	29.838 
12:35	83.4	83.4	86.1	58	67.0	2	6	270	0.00	29.829 
12:40	83.6	83.6	86.6	59	67.7	2	5	270	0.00	29.828 
12:45	84.0	84.0	87.0	58	67.6	1	3	270	0.00	29.824 
12:50	84.3	84.3	87.2	57	67.4	2	6	270	0.00	29.820 
12:55	84.1	84.1	86.9	57	67.2	2	5	292	0.00	29.824 
13:00	84.5	84.5	87.8	58	68.1	2	5	270	0.00	29.819 
13:05	84.7	84.7	87.9	57	67.7	2	4	315	0.00	29.815 
13:10	84.9	84.9	88.2	57	67.9	3	5	270	0.00	29.815 
13:15	85.3	85.3	88.5	56	67.8	2	4	270	0.00	29.812 
13:20	85.7	85.7	88.9	55	67.6	2	5	248	0.00	29.809 
13:25	86.3	86.3	89.9	55	68.2	2	5	248	0.00	29.808 
13:30	86.5	86.5	89.3	52	66.7	2	4	248	0.00	29.809 
13:35	87.0	87.0	89.7	51	66.6	2	5	270	0.00	29.808 
13:40	87.0	87.0	90.4	53	67.8	2	4	292	0.00	29.809 
13:45	87.0	87.0	90.1	52	67.2	2	5	248	0.00	29.808 
13:50	87.2	87.2	90.1	51	66.8	2	7	248	0.00	29.806 
13:55	87.0	87.0	89.7	51	66.6	2	4	248	0.00	29.807 
14:00	87.0	87.0	89.4	50	66.1	2	5	248	0.00	29.805 
14:05	87.0	87.0	89.1	49	65.5	3	5	248	0.00	29.807 
14:10	87.0	87.0	89.4	50	66.1	2	4	270	0.00	29.808 
14:15	87.0	87.0	89.4	50	66.1	1	5	270	0.00	29.807 
14:20	87.6	87.6	90.0	49	66.0	1	4	270	0.00	29.806 
14:25	87.6	87.6	89.4	47	64.8	3	6	270	0.00	29.808 
14:30	87.0	87.0	89.1	49	65.5	3	6	270	0.00	29.808 
14:35	86.5	86.5	88.3	49	65.0	2	4	270	0.00	29.807 
14:40	86.5	86.5	88.3	49	65.0	3	6	270	0.00	29.807 
14:45	86.3	86.3	88.0	49	64.9	2	4	0	0.00	29.810 
14:50	85.9	85.9	87.7	50	65.1	2	6	270	0.00	29.810 
14:55	86.1	86.1	88.6	52	66.4	2	5	248	0.00	29.811 
15:00	87.0	87.0	89.4	50	66.1	2	4	270	0.00	29.810 
15:05	87.4	87.4	90.1	50	66.4	3	5	270	0.00	29.811 
15:10	87.4	87.4	90.1	50	66.4	2	5	270	0.00	29.812 
15:15	86.5	86.5	88.9	51	66.2	3	6	270	0.00	29.809 
15:20	86.3	86.3	88.3	50	65.4	3	11	270	0.00	29.808 
15:25	85.5	85.5	87.4	51	65.3	3	12	270	0.00	29.808 
15:30	85.5	85.5	87.4	51	65.3	3	7	248	0.00	29.807 
15:35	85.5	85.5	88.0	53	66.4	3	5	270	0.00	29.805 
15:40	85.7	85.7	88.0	52	66.0	2	6	270	0.00	29.799 
15:45	86.1	86.1	88.3	51	65.8	2	5	270	0.00	29.795 
15:50	86.5	86.5	89.3	52	66.7	1	4	315	0.00	29.795 
15:55	87.0	87.0	89.4	50	66.1	3	5	270	0.00	29.794 
16:00	86.5	86.5	88.6	50	65.6	2	6	248	0.00	29.792 
16:05	86.5	86.5	88.6	50	65.6	3	6	270	0.00	29.792 
16:10	86.5	86.5	88.9	51	66.2	1	3	270	0.00	29.789 
16:15	87.0	87.0	89.4	50	66.1	2	5	248	0.00	29.789 
16:20	87.0	87.0	89.1	49	65.5	2	5	248	0.00	29.788 
16:25	87.2	87.2	88.8	47	64.5	3	5	270	0.00	29.787 
16:30	87.4	87.4	89.1	47	64.7	2	5	270	0.00	29.784 
16:35	87.6	87.6	89.7	48	65.4	2	5	270	0.00	29.783 
16:40	87.6	87.6	89.7	48	65.4	2	4	248	0.00	29.783 
16:45	87.2	87.2	89.1	48	65.1	2	5	248	0.00	29.784 
16:50	87.0	87.0	88.8	48	64.9	3	9	270	0.00	29.780 
16:55	86.7	86.7	88.6	49	65.2	2	4	270	0.00	29.782 
17:00	86.3	86.3	88.3	50	65.4	2	4	248	0.00	29.783 
17:05	85.9	85.9	87.7	50	65.1	2	4	248	0.00	29.782 
17:10	85.7	85.7	87.4	50	64.9	3	6	270	0.00	29.782 
17:15	85.5	85.5	87.4	51	65.3	2	7	270	0.00	29.785 
17:20	85.1	85.1	86.9	51	64.9	3	6	270	0.00	29.787 
17:25	85.3	85.3	87.1	51	65.1	2	7	270	0.00	29.781 
17:30	85.5	85.5	87.2	50	64.7	3	7	248	0.00	29.777 
17:35	85.9	85.9	87.7	50	65.1	2	4	248	0.00	29.776 
17:40	85.9	85.9	87.5	49	64.5	2	7	270	0.00	29.775 
17:45	85.7	85.7	87.7	51	65.5	1	4	270	0.00	29.776 
17:50	85.7	85.7	87.7	51	65.5	2	5	248	0.00	29.778 
17:55	85.7	85.7	87.7	51	65.5	2	5	248	0.00	29.778 
18:00	85.3	85.3	87.4	52	65.6	3	5	270	0.00	29.777 
18:05	85.1	85.1	87.7	54	66.6	3	5	248	0.00	29.778 
18:10	84.7	84.7	87.0	54	66.2	2	5	248	0.00	29.778 
18:15	84.5	84.5	86.7	54	66.0	3	5	270	0.00	29.778 
18:20	84.3	84.3	86.7	55	66.3	1	3	248	0.00	29.785 
18:25	84.3	84.3	87.0	56	66.9	2	5	248	0.00	29.788 
18:30	84.1	84.1	87.2	58	67.7	3	6	270	0.00	29.788 
18:35	83.6	83.6	86.4	58	67.2	3	6	270	0.00	29.786 
18:40	83.4	83.4	86.1	58	67.0	3	7	270	0.00	29.781 
18:45	83.2	83.2	86.0	59	67.4	1	3	248	0.00	29.780 
18:50	82.8	82.8	85.6	60	67.5	1	4	225	0.00	29.780 
18:55	82.6	82.6	85.5	61	67.8	1	3	225	0.00	29.779 
19:00	82.4	82.4	85.4	62	68.0	1	5	248	0.00	29.780 
19:05	82.4	82.4	85.4	62	68.0	2	5	270	0.00	29.779 
19:10	82.4	82.4	85.4	62	68.0	1	3	248	0.00	29.778 
19:15	82.2	82.2	85.3	63	68.3	1	3	248	0.00	29.776 
19:20	82.0	82.0	85.0	63	68.1	1	2	248	0.00	29.776 
19:25	82.0	82.0	85.0	63	68.1	1	6	248	0.00	29.778 
19:30	82.0	82.0	85.0	63	68.1	1	3	248	0.00	29.768 
19:35	82.0	82.0	85.2	64	68.6	1	3	248	0.00	29.773 
19:40	81.6	81.6	84.7	65	68.7	2	4	248	0.00	29.775 
19:45	81.6	81.6	84.7	65	68.7	2	5	270	0.00	29.773 
19:50	81.6	81.6	84.7	65	68.7	1	4	270	0.00	29.773 
19:55	81.6	81.6	84.9	66	69.1	1	5	248	0.00	29.767 
20:00	81.2	81.2	84.5	67	69.2	1	3	248	0.00	29.761 
20:05	81.1	81.1	84.6	69	69.9	1	5	248	0.00	29.755 
20:10	80.5	80.5	83.9	71	70.2	2	6	248	0.00	29.752 
20:15	79.8	79.8	83.2	75	71.1	1	3	248	0.01	29.746 
20:20	78.6	78.6	81.3	78	71.1	1	5	248	0.00	29.746 
20:25	77.9	77.9	80.1	80	71.2	1	2	248	0.00	29.746 
20:30	77.7	77.7	79.8	81	71.4	1	2	248	0.00	29.750 
20:35	77.7	77.7	79.8	81	71.4	1	5	248	0.00	29.748 
20:40	77.7	77.7	79.8	81	71.4	1	2	248	0.00	29.751 
20:45	77.7	77.7	79.8	81	71.4	1	4	248	0.00	29.757 
20:50	77.9	77.9	80.1	81	71.6	0	2	248	0.00	29.757 
20:55	77.9	77.9	80.1	80	71.2	0	2	248	0.00	29.752 
21:00	78.1	78.1	80.5	80	71.4	0	3	248	0.00	29.760 
21:05	78.1	78.1	80.5	80	71.4	0	2	248	0.00	29.756 
21:10	78.3	78.3	80.8	79	71.2	1	2	248	0.00	29.756 
21:15	78.5	78.5	81.1	78	71.1	1	2	248	0.00	29.744 
21:20	78.6	78.6	81.4	79	71.5	0	2	248	0.00	29.740 
21:25	78.5	78.5	81.2	79	71.4	0	3	248	0.00	29.724 
21:30	78.6	78.6	81.3	78	71.1	1	3	225	0.00	29.724 
21:35	78.6	78.6	81.3	78	71.1	0	2	202	0.00	29.724 
21:40	78.6	78.6	81.4	79	71.5	0	2	202	0.00	29.740 
21:45	78.6	78.6	81.4	79	71.5	0	2	225	0.00	29.748 
21:50	78.6	78.6	81.4	79	71.5	1	3	248	0.00	29.751 
21:55	78.3	78.3	80.8	80	71.6	1	5	270	0.00	29.766 
22:00	76.1	76.1	77.7	72	66.4	1	6	270	0.00	29.783 
22:05	74.2	74.2	74.2	76	66.1	1	6	292	0.01	29.770 
22:10	72.5	72.5	72.5	82	66.7	1	7	338	0.01	29.776 
22:15	70.9	70.9	70.9	87	66.8	1	4	292	0.02	29.774 
22:20	70.3	70.3	70.3	90	67.2	1	3	292	0.03	29.773 
22:25	69.9	69.9	69.9	92	67.5	1	5	270	0.07	29.787 
22:30	69.6	69.6	69.6	93	67.5	1	5	292	0.14	29.796 
22:35	69.3	69.3	69.3	94	67.5	4	9	292	0.24	29.784 
22:40	68.9	68.9	68.9	94	67.1	4	10	270	0.21	29.781 
22:45	68.8	68.8	68.8	94	67.0	1	2	68	0.04	29.797 
22:50	68.6	68.6	68.6	95	67.1	1	4	270	0.01	29.789 
22:55	68.6	68.6	68.6	95	67.1	1	3	270	0.09	29.786 
23:00	68.6	68.6	68.6	96	67.4	1	6	292	0.15	29.767 
23:05	68.8	68.8	68.8	96	67.6	2	10	248	0.27	29.778 
23:10	68.9	68.9	68.9	96	67.7	1	3	315	0.19	29.766 
23:15	68.9	68.9	68.9	96	67.7	1	3	315	0.23	29.772 
23:20	68.9	68.9	68.9	97	68.0	2	7	292	0.21	29.769 
23:25	68.8	68.8	68.8	97	67.9	1	4	292	0.18	29.763 
23:30	68.8	68.8	68.8	97	67.9	1	4	270	0.07	29.787 
23:35	68.8	68.8	68.8	97	67.9	1	3	270	0.04	29.771 
23:40	68.9	68.9	68.9	97	68.0	2	4	270	0.17	29.826 
23:45	68.9	68.9	68.9	97	68.0	1	5	270	0.10	29.810 
23:50	68.6	68.6	68.6	97	67.7	1	3	248	0.03	29.793 
23:55	68.4	68.4	68.4	97	67.5	0	1	248	0.02	29.789 

CoCoRaHS
IN-AL-39
A2 Web Hosting
Creative Commons License
GoDaddy
Look for:

loaded 2017-12-12 01:54:08 • last modified 2010-11-18 10:43:29
Privacy PolicyDisclaimer
• wx.awcolley.com is powered by PmWiki v.2002016 •
• all content (unless otherwise noted) © 2017 A W Colley